createdAt,value
2019-06-27T00:00:33.103Z,0
2019-06-27T00:03:30.616Z,0
2019-06-27T00:06:32.386Z,0
2019-06-27T00:09:31.556Z,0
2019-06-27T00:12:31.458Z,0
2019-06-27T00:15:30.880Z,0
2019-06-27T00:18:30.501Z,0
2019-06-27T00:21:31.100Z,0
2019-06-27T00:24:30.644Z,0
2019-06-27T00:27:31.160Z,0
2019-06-27T00:30:35.836Z,0
2019-06-27T00:33:30.476Z,0
2019-06-27T00:36:31.172Z,0
2019-06-27T00:39:30.652Z,0
2019-06-27T00:42:31.144Z,0
2019-06-27T00:45:30.504Z,0
2019-06-27T00:48:31.180Z,0
2019-06-27T00:51:30.707Z,0
2019-06-27T00:54:31.482Z,0
2019-06-27T00:57:31.109Z,0
2019-06-27T01:00:30.620Z,0
2019-06-27T01:03:36.856Z,0
2019-06-27T01:06:35.369Z,0
2019-06-27T01:09:31.607Z,0
2019-06-27T01:12:31.249Z,0
2019-06-27T01:15:30.828Z,0
2019-06-27T01:18:30.528Z,0
2019-06-27T01:21:32.461Z,0
2019-06-27T01:24:31.053Z,0
2019-06-27T01:27:45.742Z,0
2019-06-27T01:30:31.849Z,0
2019-06-27T01:33:30.218Z,0
2019-06-27T01:36:30.787Z,0
2019-06-27T01:39:30.234Z,0
2019-06-27T01:42:30.753Z,0
2019-06-27T01:45:38.720Z,0
2019-06-27T01:48:31.496Z,0
2019-06-27T01:51:36.051Z,0
2019-06-27T01:54:30.568Z,0
2019-06-27T01:57:49.429Z,0
2019-06-27T02:00:31.765Z,0
2019-06-27T02:03:31.365Z,0
2019-06-27T02:06:30.835Z,0
2019-06-27T02:09:33.557Z,0
2019-06-27T02:12:31.134Z,0
2019-06-27T02:15:31.812Z,0
2019-06-27T02:18:30.381Z,0
2019-06-27T02:21:30.977Z,0
2019-06-27T02:24:30.841Z,0
2019-06-27T02:27:31.716Z,0
2019-06-27T02:30:49.482Z,0
2019-06-27T02:33:31.374Z,0
2019-06-27T02:36:31.315Z,0
2019-06-27T02:39:32.037Z,0
2019-06-27T02:42:30.695Z,1
2019-06-27T02:45:36.360Z,1
2019-06-27T02:48:30.735Z,2
2019-06-27T02:51:36.270Z,2
2019-06-27T02:54:30.804Z,4
2019-06-27T02:57:30.420Z,6
2019-06-27T03:00:31.047Z,9
2019-06-27T03:03:30.650Z,13
2019-06-27T03:06:31.294Z,18
2019-06-27T03:09:30.857Z,26
2019-06-27T03:12:30.694Z,36
2019-06-27T03:15:31.627Z,48
2019-06-27T03:18:31.565Z,64
2019-06-27T03:21:31.282Z,83
2019-06-27T03:24:31.787Z,107
2019-06-27T03:27:31.345Z,132
2019-06-27T03:30:31.346Z,162
2019-06-27T03:33:31.116Z,195
2019-06-27T03:36:30.750Z,232
2019-06-27T03:39:31.829Z,272
2019-06-27T03:42:30.343Z,317
2019-06-27T03:45:31.881Z,365
2019-06-27T03:48:30.382Z,418
2019-06-27T03:51:31.457Z,473
2019-06-27T03:54:31.045Z,531
2019-06-27T03:57:30.664Z,592
2019-06-27T04:00:40.785Z,658
2019-06-27T04:03:30.687Z,734
2019-06-27T04:06:31.152Z,807
2019-06-27T04:09:30.817Z,883
2019-06-27T04:12:30.386Z,958
2019-06-27T04:15:30.973Z,1042
2019-06-27T04:18:30.781Z,1128
2019-06-27T04:21:31.393Z,1221
2019-06-27T04:24:31.070Z,1325
2019-06-27T04:27:32.010Z,1426
2019-06-27T04:30:35.586Z,1549
2019-06-27T04:33:31.126Z,1793
2019-06-27T04:36:35.733Z,1868
2019-06-27T04:39:31.272Z,1931
2019-06-27T04:42:30.832Z,2209
2019-06-27T04:45:30.442Z,2582
2019-06-27T04:48:31.028Z,2850
2019-06-27T04:51:30.615Z,3058
2019-06-27T04:54:31.198Z,3323
2019-06-27T04:57:31.068Z,3341
2019-06-27T05:00:33.857Z,3423
2019-06-27T05:03:30.848Z,3606
2019-06-27T05:06:30.503Z,3871
2019-06-27T05:09:31.083Z,3905
2019-06-27T05:12:30.837Z,3899
2019-06-27T05:15:30.430Z,6226
2019-06-27T05:18:31.098Z,9399
2019-06-27T05:21:30.688Z,9117
2019-06-27T05:24:31.162Z,9189
2019-06-27T05:27:30.641Z,10328
2019-06-27T05:30:31.564Z,13850
2019-06-27T05:33:31.658Z,17479
2019-06-27T05:36:31.861Z,15040
2019-06-27T05:39:31.448Z,11243
2019-06-27T05:42:36.910Z,18252
2019-06-27T05:45:31.451Z,22738
2019-06-27T05:48:39.690Z,25269
2019-06-27T05:51:31.736Z,26381
2019-06-27T05:54:32.393Z,26603
2019-06-27T05:57:32.137Z,24332
2019-06-27T06:00:45.516Z,22598
2019-06-27T06:03:32.247Z,18865
2019-06-27T06:06:32.950Z,18911
2019-06-27T06:09:35.577Z,13522
2019-06-27T06:12:32.054Z,24086
2019-06-27T06:15:31.760Z,9922
2019-06-27T06:18:31.450Z,11088
2019-06-27T06:21:31.988Z,11477
2019-06-27T06:24:31.507Z,29178
2019-06-27T06:27:32.170Z,18633
2019-06-27T06:30:46.957Z,29683
2019-06-27T06:33:31.732Z,21974
2019-06-27T06:36:37.674Z,13956
2019-06-27T06:39:32.339Z,31148
2019-06-27T06:42:31.985Z,33500
2019-06-27T06:45:31.792Z,34633
2019-06-27T06:48:31.511Z,29252
2019-06-27T06:51:32.327Z,32759
2019-06-27T06:54:32.080Z,12532
2019-06-27T06:57:31.830Z,12796
2019-06-27T07:00:37.060Z,23862
2019-06-27T07:03:33.074Z,12601
2019-06-27T07:06:32.806Z,25013
2019-06-27T07:09:31.603Z,12194
2019-06-27T07:12:32.207Z,34052
2019-06-27T07:15:33.402Z,36367
2019-06-27T07:18:38.682Z,35575
2019-06-27T07:21:37.671Z,35783
2019-06-27T07:24:32.852Z,43903
2019-06-27T07:27:31.648Z,36193
2019-06-27T07:30:34.117Z,46935
2019-06-27T07:33:33.551Z,43104
2019-06-27T07:36:37.326Z,39031
2019-06-27T07:39:32.606Z,39759
2019-06-27T07:42:32.173Z,44198
2019-06-27T07:45:32.883Z,51174
2019-06-27T07:48:42.007Z,53397
2019-06-27T07:51:37.195Z,53481
2019-06-27T07:54:31.935Z,53346
2019-06-27T07:57:31.785Z,52767
2019-06-27T08:00:32.395Z,26369
2019-06-27T08:07:20.938Z,53191
2019-06-27T08:12:53.729Z,54612
2019-06-27T08:22:21.369Z,54612
2019-06-27T08:25:06.953Z,54612
2019-06-27T08:27:32.741Z,54612
2019-06-27T08:34:02.817Z,54612
2019-06-27T08:37:28.614Z,54612
2019-06-27T08:39:59.667Z,54612
2019-06-27T08:42:45.755Z,54612
2019-06-27T08:46:22.380Z,54612
2019-06-27T08:48:38.532Z,54612
2019-06-27T08:51:47.168Z,47292
2019-06-27T08:54:48.452Z,23738
2019-06-27T08:57:51.452Z,22729
2019-06-27T09:00:38.343Z,21926
2019-06-27T09:03:32.690Z,21528
2019-06-27T09:06:32.568Z,21968
2019-06-27T09:09:32.705Z,21975
2019-06-27T09:12:44.423Z,22484
2019-06-27T09:15:32.314Z,23013
2019-06-27T09:18:32.387Z,23497
2019-06-27T09:21:38.854Z,24071
2019-06-27T09:24:37.555Z,25508
2019-06-27T09:27:32.668Z,25392
2019-06-27T09:30:37.621Z,24690
2019-06-27T09:33:32.810Z,25733
2019-06-27T09:36:37.901Z,24581
2019-06-27T09:39:55.222Z,24279
2019-06-27T09:42:35.384Z,24200
2019-06-27T09:45:36.097Z,23232
2019-06-27T09:49:07.081Z,24192
2019-06-27T09:51:37.558Z,24728
2019-06-27T09:54:54.587Z,26238
2019-06-27T09:57:48.384Z,27567
2019-06-27T10:00:32.471Z,29101
2019-06-27T10:06:38.618Z,29125
2019-06-27T10:09:52.489Z,31058
2019-06-27T10:12:46.360Z,31512
2019-06-27T10:15:38.177Z,30882
2019-06-27T10:18:38.693Z,31102
2019-06-27T10:21:37.803Z,29949
2019-06-27T10:24:36.903Z,29573
2019-06-27T10:27:48.257Z,35219
2019-06-27T10:30:52.185Z,35168
2019-06-27T10:33:37.684Z,36442
2019-06-27T10:36:45.898Z,38965
2019-06-27T10:39:49.680Z,39715
2019-06-27T10:42:32.670Z,37036
2019-06-27T10:45:32.879Z,34960
2019-06-27T10:48:32.247Z,29034
2019-06-27T10:51:32.633Z,19722
2019-06-27T10:54:32.927Z,20965
2019-06-27T10:57:37.154Z,54612
2019-06-27T11:00:39.287Z,8034
2019-06-27T11:03:52.611Z,6914
2019-06-27T11:06:48.818Z,6906
2019-06-27T11:09:33.931Z,6780
2019-06-27T11:12:49.945Z,6649
2019-06-27T11:15:38.491Z,6421
2019-06-27T11:18:38.906Z,6207
2019-06-27T11:21:31.710Z,6299
2019-06-27T11:24:33.335Z,6137
2019-06-27T11:27:54.055Z,5943
2019-06-27T11:30:33.824Z,5760
2019-06-27T11:33:54.515Z,5666
2019-06-27T11:39:51.368Z,5282
2019-06-27T11:42:37.646Z,5166
2019-06-27T11:45:45.809Z,5074
2019-06-27T11:48:46.536Z,4913
2019-06-27T11:51:48.020Z,4811
2019-06-27T11:54:31.982Z,4770
2019-06-27T11:57:32.157Z,4742
2019-06-27T12:00:32.551Z,4668
2019-06-27T12:03:48.167Z,4582
2019-06-27T12:06:32.257Z,4509
2019-06-27T12:09:32.795Z,4457
2019-06-27T12:12:41.973Z,4384
2019-06-27T12:15:32.041Z,4360
2019-06-27T12:18:32.373Z,4332
2019-06-27T12:21:32.284Z,4278
2019-06-27T12:24:32.113Z,4252
2019-06-27T12:27:32.179Z,4242
2019-06-27T12:30:32.317Z,4194
2019-06-27T12:33:32.753Z,4128
2019-06-27T12:36:46.442Z,4049
2019-06-27T12:39:42.971Z,4000
2019-06-27T12:42:49.242Z,3959
2019-06-27T12:45:50.393Z,3914
2019-06-27T12:48:32.968Z,3882
2019-06-27T12:51:32.682Z,3828
2019-06-27T12:54:32.964Z,3822
2019-06-27T12:57:31.889Z,3820
2019-06-27T13:00:32.354Z,3792
2019-06-27T13:03:32.349Z,3750
2019-06-27T13:06:32.483Z,3725
2019-06-27T13:09:33.539Z,3693
2019-06-27T13:12:49.802Z,3646
2019-06-27T13:15:31.628Z,3611
2019-06-27T13:18:32.241Z,3222
2019-06-27T13:21:32.806Z,3262
2019-06-27T13:24:36.606Z,2981
2019-06-27T13:27:37.245Z,3323
2019-06-27T13:30:32.118Z,4044
2019-06-27T13:33:32.314Z,4041
2019-06-27T13:36:36.042Z,3993
2019-06-27T13:39:37.541Z,3962
2019-06-27T13:42:32.815Z,3942
2019-06-27T13:45:32.233Z,3927
2019-06-27T13:48:32.461Z,3872
2019-06-27T13:51:33.289Z,3860
2019-06-27T13:54:32.239Z,3830
2019-06-27T13:57:32.297Z,3808
2019-06-27T14:00:47.228Z,3778
2019-06-27T14:03:52.073Z,3751
2019-06-27T14:06:32.063Z,3728
2019-06-27T14:09:57.477Z,3699
2019-06-27T14:12:32.607Z,3656
2019-06-27T14:15:37.471Z,3621
2019-06-27T14:18:37.359Z,3571
2019-06-27T14:21:33.114Z,3522
2019-06-27T14:24:34.023Z,3339
2019-06-27T14:27:32.066Z,3423
2019-06-27T14:30:38.268Z,3376
2019-06-27T14:33:32.185Z,3309
2019-06-27T14:36:33.434Z,3242
2019-06-27T14:39:32.325Z,3190
2019-06-27T14:42:37.008Z,3146
2019-06-27T14:45:36.801Z,3118
2019-06-27T14:48:33.995Z,3098
2019-06-27T14:51:32.371Z,3072
2019-06-27T14:54:32.456Z,3024
2019-06-27T14:57:33.069Z,2952
2019-06-27T15:00:33.305Z,2888
2019-06-27T15:03:35.590Z,2818
2019-06-27T15:06:32.480Z,2752
2019-06-27T15:09:33.260Z,2680
2019-06-27T15:12:35.734Z,2609
2019-06-27T15:15:32.041Z,2551
2019-06-27T15:18:40.325Z,2492
2019-06-27T15:21:33.454Z,2432
2019-06-27T15:24:38.870Z,2386
2019-06-27T15:27:31.706Z,2334
2019-06-27T15:30:32.836Z,2283
2019-06-27T15:33:31.888Z,2230
2019-06-27T15:36:32.163Z,1990
2019-06-27T15:39:32.038Z,1944
2019-06-27T15:42:32.280Z,1903
2019-06-27T15:45:32.208Z,1879
2019-06-27T15:48:32.147Z,1830
2019-06-27T15:51:32.257Z,1802
2019-06-27T15:54:38.012Z,1767
2019-06-27T15:57:32.029Z,1733
2019-06-27T16:00:32.252Z,1710
2019-06-27T16:03:38.225Z,1672
2019-06-27T16:06:32.285Z,1653
2019-06-27T16:09:32.803Z,1654
2019-06-27T16:12:36.802Z,1624
2019-06-27T16:15:31.923Z,1625
2019-06-27T16:18:32.208Z,1596
2019-06-27T16:21:32.168Z,1591
2019-06-27T16:24:38.007Z,1586
2019-06-27T16:27:32.123Z,1573
2019-06-27T16:30:41.244Z,1484
2019-06-27T16:33:39.660Z,1404
2019-06-27T16:37:14.163Z,1398
2019-06-27T16:42:57.242Z,1390
2019-06-27T16:45:58.699Z,1385
2019-06-27T16:48:46.540Z,1380
2019-06-27T16:52:14.151Z,1375
2019-06-27T16:55:12.659Z,1370
2019-06-27T16:58:19.042Z,1368
2019-06-27T17:01:20.860Z,1362
2019-06-27T17:04:12.570Z,1355
2019-06-27T17:06:56.224Z,1350
2019-06-27T17:13:02.116Z,1343
2019-06-27T17:15:57.799Z,1336
2019-06-27T17:18:58.063Z,1328
2019-06-27T17:22:13.108Z,1321
2019-06-27T17:24:47.723Z,1312
2019-06-27T17:30:56.639Z,1298
2019-06-27T17:33:55.186Z,1288
2019-06-27T17:37:11.139Z,1280
2019-06-27T17:39:32.076Z,1270
2019-06-27T17:43:16.662Z,1260
2019-06-27T17:51:57.945Z,1228
2019-06-27T17:54:38.109Z,1216
2019-06-27T17:57:54.278Z,1205
2019-06-27T18:00:37.057Z,1192
2019-06-27T18:03:32.491Z,1177
2019-06-27T18:09:49.597Z,1147
2019-06-27T18:12:33.678Z,1128
2019-06-27T18:27:32.236Z,1016
2019-06-27T18:30:32.984Z,997
2019-06-27T18:35:06.911Z,973
2019-06-27T18:48:25.086Z,810
2019-06-27T18:57:38.487Z,708
2019-06-27T19:00:35.154Z,676
2019-06-27T19:03:56.927Z,637
2019-06-27T19:06:30.975Z,592
2019-06-27T19:10:04.370Z,558
2019-06-27T19:15:56.721Z,458
2019-06-27T19:18:58.492Z,429
2019-06-27T19:21:42.604Z,373
2019-06-27T19:27:35.924Z,290
2019-06-27T19:30:36.941Z,258
2019-06-27T19:33:35.994Z,218
2019-06-27T19:36:32.186Z,182
2019-06-27T19:39:30.973Z,150
2019-06-27T19:42:41.074Z,120
2019-06-27T19:45:31.145Z,93
2019-06-27T20:04:48.125Z,12
2019-06-27T20:06:31.001Z,8
2019-06-27T20:09:30.833Z,6
2019-06-27T20:12:30.691Z,3
2019-06-27T20:15:36.744Z,2
2019-06-27T20:18:30.551Z,2
2019-06-27T20:21:31.220Z,1
2019-06-27T20:24:30.914Z,1
2019-06-27T20:27:30.377Z,0
2019-06-27T20:30:36.115Z,0
2019-06-27T20:33:30.539Z,0
2019-06-27T20:36:31.463Z,0
2019-06-27T20:39:31.148Z,0
2019-06-27T20:42:32.226Z,0
2019-06-27T20:45:41.408Z,0
2019-06-27T20:48:36.594Z,0
2019-06-27T20:51:57.002Z,0
2019-06-27T20:58:07.568Z,0
2019-06-27T21:03:46.911Z,0
2019-06-27T21:06:30.795Z,0
2019-06-27T21:09:30.682Z,0
2019-06-27T21:12:31.135Z,0
2019-06-27T21:15:35.676Z,0
2019-06-27T21:18:31.918Z,0
2019-06-27T21:21:30.392Z,0
2019-06-27T21:24:31.383Z,0
2019-06-27T21:27:30.935Z,0
2019-06-27T21:30:50.678Z,0
2019-06-27T21:33:32.740Z,0
2019-06-27T21:36:31.340Z,0
2019-06-27T21:39:31.106Z,0
2019-06-27T21:42:30.678Z,0
2019-06-27T21:45:31.322Z,0
2019-06-27T21:48:46.280Z,0
2019-06-27T21:51:32.175Z,0
2019-06-27T21:54:30.843Z,0
2019-06-27T21:57:30.587Z,0
2019-06-27T22:00:32.805Z,0
2019-06-27T22:05:40.483Z,0
2019-06-27T22:10:03.911Z,0
2019-06-27T22:12:34.154Z,0
2019-06-27T22:15:32.070Z,0
2019-06-27T22:18:30.817Z,0
2019-06-27T22:21:30.393Z,0
2019-06-27T22:24:31.195Z,0
2019-06-27T22:27:30.798Z,0
2019-06-27T22:30:30.543Z,0
2019-06-27T22:33:31.075Z,0
2019-06-27T22:36:30.672Z,0
2019-06-27T22:41:41.275Z,0
2019-06-27T22:44:40.369Z,0
2019-06-27T22:47:39.572Z,0
2019-06-27T22:48:30.617Z,0
2019-06-27T22:51:48.824Z,0
2019-06-27T22:54:31.194Z,0
2019-06-27T22:57:30.979Z,0
2019-06-27T23:00:30.655Z,0
2019-06-27T23:03:31.220Z,0
2019-06-27T23:06:31.058Z,0
2019-06-27T23:09:30.683Z,0
2019-06-27T23:12:36.479Z,0
2019-06-27T23:15:31.085Z,0
2019-06-27T23:18:30.544Z,0
2019-06-27T23:21:31.028Z,0
2019-06-27T23:24:30.396Z,0
2019-06-27T23:27:31.040Z,0
2019-06-27T23:30:30.468Z,0
2019-06-27T23:33:30.953Z,0
2019-06-27T23:36:30.485Z,0
2019-06-27T23:39:31.098Z,0
2019-06-27T23:42:30.728Z,0
2019-06-27T23:45:31.232Z,0
2019-06-27T23:48:30.740Z,0
2019-06-27T23:51:31.340Z,0
2019-06-27T23:54:35.930Z,0
2019-06-27T23:57:30.322Z,0
